CheckWX is a tool to help pilots better visualize weather data.  It is not intended as a substitute for an official pre-flight weather briefing.

06:30:42 UTC

WBKL METAR
Labuan Airport
Labuan, Malaysia
Current

31 mins ago

WBKL 190600Z 03006KT 280V070 8000 FEW014 SCT140 BKN280 31/25 Q1009
Observed
Sep-19 @ 06:00 UTC
Wind
  • 030° at 6 KTS
Visibility
8,000 meters
Flight Rules
MVFR
Cloud Levels
  • Few at 1,400' AGL
  • Scattered at 14,000' AGL
  • Broken at 28,000' AGL
Temperature
31°C / 88°F
Dewpoint
25°C / 77°F
Heat Index
38°C / 100°F
Humidity
70%
Altimeter
29.79" Hg
Pressure
1008.92 hPa
Previous

2 hours ago

WBKL 190500Z 03006KT 310V080 6000 FEW012 SCT140 BKN290 32/25 Q1010
Observed
Sep-19 @ 05:00 UTC
Wind
  • 030° at 6 KTS
Visibility
6,000 meters
Flight Rules
MVFR
Cloud Levels
  • Few at 1,200' AGL
  • Scattered at 14,000' AGL
  • Broken at 29,000' AGL
Temperature
32°C / 90°F
Dewpoint
25°C / 77°F
Heat Index
40°C / 104°F
Humidity
67%
Altimeter
29.82" Hg
Pressure
1009.92 hPa
Previous

3 hours ago

WBKL 190400Z 04006KT 330V090 6000 FEW013 SCT140 BKN290 32/23 Q1011
Observed
Sep-19 @ 04:00 UTC
Wind
  • 040° at 6 KTS
Visibility
6,000 meters
Flight Rules
MVFR
Cloud Levels
  • Few at 1,300' AGL
  • Scattered at 14,000' AGL
  • Broken at 29,000' AGL
Temperature
32°C / 90°F
Dewpoint
23°C / 73°F
Heat Index
37°C / 99°F
Humidity
59%
Altimeter
29.85" Hg
Pressure
1010.92 hPa